createdAt,value
2018-08-24T00:00:04.852Z,20.86
2018-08-24T00:02:32.876Z,20.83
2018-08-24T00:05:00.891Z,20.84
2018-08-24T00:07:29.051Z,20.72
2018-08-24T00:09:56.964Z,20.87
2018-08-24T00:12:25.052Z,20.95
2018-08-24T00:14:53.087Z,21.04
2018-08-24T00:17:26.678Z,20.94
2018-08-24T00:19:54.670Z,20.88
2018-08-24T00:22:22.672Z,20.82
2018-08-24T00:24:50.701Z,20.71
2018-08-24T00:27:18.792Z,20.62
2018-08-24T00:29:46.792Z,20.65
2018-08-24T00:32:14.789Z,20.57
2018-08-24T00:34:42.790Z,20.68
2018-08-24T00:37:10.845Z,20.56
2018-08-24T00:39:42.248Z,20.52
2018-08-24T00:42:10.378Z,20.60
2018-08-24T00:44:38.420Z,20.62
2018-08-24T00:47:06.464Z,20.56
2018-08-24T00:49:34.464Z,20.27
2018-08-24T00:52:02.469Z,20.39
2018-08-24T00:54:30.484Z,20.40
2018-08-24T00:56:58.484Z,20.32
2018-08-24T00:59:26.513Z,20.27
2018-08-24T01:01:54.513Z,20.33
2018-08-24T01:04:27.906Z,20.31
2018-08-24T01:06:55.906Z,20.42
2018-08-24T01:09:23.936Z,20.27
2018-08-24T01:11:57.385Z,20.39
2018-08-24T01:14:25.380Z,20.34
2018-08-24T01:16:58.800Z,20.27
2018-08-24T01:19:26.830Z,20.17
2018-08-24T01:21:54.834Z,20.20
2018-08-24T01:24:27.014Z,20.18
2018-08-24T01:27:00.544Z,20.27
2018-08-24T01:29:28.547Z,20.08
2018-08-24T01:31:56.537Z,20.42
2018-08-24T01:34:24.552Z,20.22
2018-08-24T01:36:52.648Z,20.13
2018-08-24T01:39:20.672Z,20.06
2018-08-24T01:41:49.001Z,20.05
2018-08-24T01:44:17.169Z,20.18
2018-08-24T01:46:45.240Z,20.32
2018-08-24T01:49:13.266Z,20.32
2018-08-24T01:51:48.070Z,20.29
2018-08-24T01:54:16.069Z,20.36
2018-08-24T01:56:44.128Z,20.25
2018-08-24T01:59:12.837Z,20.41
2018-08-24T02:01:40.735Z,20.30
2018-08-24T02:04:08.757Z,20.40
2018-08-24T02:06:36.756Z,20.36
2018-08-24T02:09:08.417Z,20.39
2018-08-24T02:11:36.460Z,20.53
2018-08-24T02:14:09.856Z,20.44
2018-08-24T02:16:38.796Z,20.32
2018-08-24T02:20:11.936Z,20.37
2018-08-24T02:22:39.927Z,20.23
2018-08-24T02:25:07.928Z,20.37
2018-08-24T02:27:35.949Z,20.33
2018-08-24T02:30:04.597Z,20.04
2018-08-24T02:32:32.593Z,20.06
2018-08-24T02:35:00.610Z,20.00
2018-08-24T02:37:29.601Z,19.95
2018-08-24T02:39:57.592Z,19.94
2018-08-24T02:42:25.610Z,20.15
2018-08-24T02:44:53.651Z,20.29
2018-08-24T02:47:21.613Z,20.35
2018-08-24T02:49:49.622Z,20.26
2018-08-24T02:52:17.616Z,20.38
2018-08-24T02:54:45.620Z,20.42
2018-08-24T02:57:13.613Z,20.35
2018-08-24T02:59:41.618Z,20.50
2018-08-24T03:02:09.613Z,20.49
2018-08-24T03:04:37.613Z,20.50
2018-08-24T03:07:05.621Z,20.48
2018-08-24T03:09:33.715Z,20.62
2018-08-24T03:12:01.729Z,20.64
2018-08-24T03:14:29.733Z,20.54
2018-08-24T03:17:03.268Z,20.43
2018-08-24T03:19:31.321Z,20.43
2018-08-24T03:21:59.352Z,20.21
2018-08-24T03:24:27.458Z,20.29
2018-08-24T03:26:55.445Z,20.30
2018-08-24T03:29:23.488Z,20.27
2018-08-24T03:31:51.474Z,20.13
2018-08-24T03:34:19.472Z,19.80
2018-08-24T03:36:47.475Z,19.90
2018-08-24T03:39:15.497Z,20.08
2018-08-24T03:41:43.492Z,19.98
2018-08-24T03:44:11.485Z,19.87
2018-08-24T03:46:39.493Z,19.99
2018-08-24T03:49:07.478Z,19.62
2018-08-24T03:51:35.463Z,19.69
2018-08-24T03:54:07.659Z,19.51
2018-08-24T03:56:35.653Z,19.53
2018-08-24T03:59:03.641Z,19.28
2018-08-24T04:01:31.636Z,19.22
2018-08-24T04:03:59.625Z,19.40
2018-08-24T04:06:27.638Z,19.26
2018-08-24T04:08:55.634Z,19.28
2018-08-24T04:11:23.697Z,19.29
2018-08-24T04:13:51.676Z,19.44
2018-08-24T04:16:19.885Z,19.53
2018-08-24T04:18:47.885Z,19.30
2018-08-24T04:21:15.886Z,18.97
2018-08-24T04:23:44.049Z,18.62
2018-08-24T04:26:12.187Z,18.49
2018-08-24T04:28:40.044Z,18.21
2018-08-24T04:31:08.053Z,18.23
2018-08-24T04:33:36.097Z,18.11
2018-08-24T04:36:04.109Z,18.28
2018-08-24T04:38:32.078Z,18.41
2018-08-24T04:41:00.103Z,18.14
2018-08-24T04:43:28.087Z,18.25
2018-08-24T04:45:56.089Z,18.26
2018-08-24T04:48:24.070Z,18.32
2018-08-24T04:50:52.060Z,17.90
2018-08-24T04:53:20.089Z,17.86
2018-08-24T04:55:48.172Z,17.85
2018-08-24T04:58:16.186Z,17.86
2018-08-24T05:00:44.149Z,17.88
2018-08-24T05:03:12.285Z,17.87
2018-08-24T05:05:40.398Z,18.00
2018-08-24T05:08:08.318Z,18.23
2018-08-24T05:10:36.350Z,18.15
2018-08-24T05:13:04.349Z,18.68
2018-08-24T05:15:32.744Z,19.28
2018-08-24T05:18:00.724Z,19.57
2018-08-24T05:20:28.717Z,19.49
2018-08-24T05:22:56.726Z,19.53
2018-08-24T05:25:24.697Z,19.78
2018-08-24T05:27:52.776Z,20.09
2018-08-24T05:30:20.769Z,20.37
2018-08-24T05:32:48.950Z,21.17
2018-08-24T05:35:17.930Z,21.81
2018-08-24T05:37:45.970Z,22.33
2018-08-24T05:40:13.977Z,22.44
2018-08-24T05:42:42.229Z,23.24
2018-08-24T05:45:10.301Z,23.89
2018-08-24T05:47:38.424Z,23.82
2018-08-24T05:50:06.968Z,23.49
2018-08-24T05:52:34.985Z,24.15
2018-08-24T05:55:03.025Z,25.05
2018-08-24T05:57:31.096Z,25.59
2018-08-24T05:59:59.117Z,26.15
2018-08-24T06:02:27.172Z,26.62
2018-08-24T06:04:55.405Z,26.91
2018-08-24T06:07:24.488Z,26.89
2018-08-24T06:09:52.477Z,25.96
2018-08-24T06:12:20.484Z,25.71
2018-08-24T06:14:48.506Z,24.72
2018-08-24T06:17:21.942Z,24.44
2018-08-24T06:19:50.005Z,24.12
2018-08-24T06:22:18.121Z,23.88
2018-08-24T06:24:46.100Z,23.83
2018-08-24T06:27:14.089Z,23.53
2018-08-24T06:29:42.091Z,23.69
2018-08-24T06:32:10.081Z,23.71
2018-08-24T06:34:38.120Z,23.48
2018-08-24T06:37:06.299Z,22.81
2018-08-24T06:39:34.217Z,22.58
2018-08-24T06:42:02.348Z,22.14
2018-08-24T06:44:30.289Z,21.89
2018-08-24T06:46:58.296Z,21.40
2018-08-24T06:49:26.289Z,21.27
2018-08-24T06:51:54.292Z,21.17
2018-08-24T06:54:22.292Z,21.36
2018-08-24T06:56:50.256Z,21.30
2018-08-24T06:59:18.285Z,21.13
2018-08-24T07:01:46.304Z,20.64
2018-08-24T07:04:14.307Z,20.78
2018-08-24T07:06:42.652Z,20.86
2018-08-24T07:09:10.669Z,20.75
2018-08-24T07:11:38.777Z,20.73
2018-08-24T07:14:06.780Z,20.67
2018-08-24T07:16:34.758Z,20.51
2018-08-24T07:19:02.752Z,20.53
2018-08-24T07:21:30.760Z,20.60
2018-08-24T07:23:58.769Z,20.48
2018-08-24T07:26:26.786Z,20.67
2018-08-24T07:28:54.760Z,21.03
2018-08-24T07:31:22.744Z,21.66
2018-08-24T07:33:50.759Z,21.83
2018-08-24T07:36:18.768Z,22.14
2018-08-24T07:38:46.779Z,22.29
2018-08-24T07:41:14.808Z,22.07
2018-08-24T07:43:42.857Z,21.86
2018-08-24T07:46:10.861Z,21.87
2018-08-24T07:48:38.853Z,21.98
2018-08-24T07:51:06.849Z,21.93
2018-08-24T07:53:34.869Z,21.66
2018-08-24T07:56:02.921Z,21.35
2018-08-24T07:58:30.913Z,21.12
2018-08-24T08:00:58.902Z,21.20
2018-08-24T08:03:26.917Z,20.88
2018-08-24T08:05:54.929Z,21.07
2018-08-24T08:08:22.989Z,21.24
2018-08-24T08:10:51.013Z,21.39
2018-08-24T08:13:19.025Z,21.34
2018-08-24T08:15:47.053Z,20.95
2018-08-24T08:18:15.174Z,21.01
2018-08-24T08:20:43.896Z,21.12
2018-08-24T08:23:11.921Z,21.08
2018-08-24T08:25:39.962Z,21.34
2018-08-24T08:28:07.976Z,21.58
2018-08-24T08:30:36.186Z,21.44
2018-08-24T08:33:04.245Z,21.66
2018-08-24T08:35:32.465Z,21.37
2018-08-24T08:38:00.504Z,21.34
2018-08-24T08:40:28.532Z,21.38
2018-08-24T08:42:56.594Z,21.35
2018-08-24T08:45:24.702Z,21.32
2018-08-24T08:47:52.768Z,21.40
2018-08-24T08:50:20.781Z,21.50
2018-08-24T08:52:48.829Z,21.40
2018-08-24T08:55:16.869Z,21.32
2018-08-24T08:57:45.044Z,21.26
2018-08-24T09:00:13.045Z,21.41
2018-08-24T09:02:41.044Z,21.03
2018-08-24T09:05:09.061Z,21.12
2018-08-24T09:07:37.052Z,21.05
2018-08-24T09:10:05.070Z,20.90
2018-08-24T09:12:33.055Z,20.66
2018-08-24T09:15:01.109Z,20.64
2018-08-24T09:17:34.601Z,20.45
2018-08-24T09:20:07.933Z,20.31
2018-08-24T09:22:41.676Z,20.22
2018-08-24T09:25:15.033Z,20.36
2018-08-24T09:27:52.220Z,20.46
2018-08-24T09:30:21.088Z,20.27
2018-08-24T09:32:49.161Z,20.22
2018-08-24T09:35:17.442Z,20.09
2018-08-24T09:37:45.516Z,20.09
2018-08-24T09:40:13.569Z,20.09
2018-08-24T09:42:41.597Z,20.23
2018-08-24T09:45:09.611Z,20.16
2018-08-24T09:47:43.037Z,19.99
2018-08-24T09:50:16.397Z,19.80
2018-08-24T09:52:48.820Z,19.72
2018-08-24T09:55:17.068Z,19.55
2018-08-24T09:57:45.144Z,19.45
2018-08-24T10:00:13.161Z,19.78
2018-08-24T10:02:44.137Z,19.84
2018-08-24T10:05:17.697Z,19.74
2018-08-24T10:07:49.805Z,19.60
2018-08-24T10:10:17.858Z,19.27
2018-08-24T10:12:45.849Z,19.26
2018-08-24T10:15:13.878Z,19.04
2018-08-24T10:17:41.953Z,18.91
2018-08-24T10:20:10.012Z,19.07
2018-08-24T10:22:38.024Z,19.18
2018-08-24T10:25:06.115Z,19.15
2018-08-24T10:27:34.242Z,19.33
2018-08-24T10:30:02.252Z,19.47
2018-08-24T10:32:30.254Z,19.45
2018-08-24T10:34:58.244Z,19.44
2018-08-24T10:37:26.329Z,19.18
2018-08-24T10:39:54.358Z,19.05
2018-08-24T10:42:22.388Z,19.22
2018-08-24T10:44:50.423Z,19.40
2018-08-24T10:47:18.552Z,19.48
2018-08-24T10:49:46.485Z,19.72
2018-08-24T10:52:14.628Z,19.74
2018-08-24T10:54:42.959Z,19.89
2018-08-24T10:57:11.072Z,20.18
2018-08-24T10:59:39.068Z,20.47
2018-08-24T11:02:07.476Z,20.65
2018-08-24T11:04:35.352Z,21.03
2018-08-24T11:07:03.638Z,21.48
2018-08-24T11:09:31.658Z,21.60
2018-08-24T11:11:59.656Z,21.79
2018-08-24T11:14:27.662Z,22.12
2018-08-24T11:16:55.745Z,22.66
2018-08-24T11:19:23.713Z,22.88
2018-08-24T11:21:51.740Z,23.04
2018-08-24T11:24:19.848Z,23.24
2018-08-24T11:26:47.898Z,23.42
2018-08-24T11:29:15.898Z,23.68
2018-08-24T11:31:44.877Z,23.95
2018-08-24T11:34:13.324Z,24.37
2018-08-24T11:36:41.593Z,24.55
2018-08-24T11:39:10.018Z,24.44
2018-08-24T11:41:38.508Z,24.29
2018-08-24T11:44:06.656Z,24.93
2018-08-24T11:46:35.201Z,24.91
2018-08-24T11:49:03.232Z,24.81
2018-08-24T11:51:35.449Z,25.00
2018-08-24T11:54:03.467Z,25.04
2018-08-24T11:56:31.461Z,24.97
2018-08-24T11:58:59.496Z,25.03
2018-08-24T12:01:27.554Z,24.75
2018-08-24T12:03:55.797Z,24.23
2018-08-24T12:06:23.977Z,23.86
2018-08-24T12:08:52.018Z,23.56
2018-08-24T12:11:20.049Z,23.19
2018-08-24T12:13:48.106Z,22.99
2018-08-24T12:16:16.426Z,22.89
2018-08-24T12:18:46.468Z,22.75
2018-08-24T12:21:14.518Z,22.68
2018-08-24T12:23:42.766Z,23.30
2018-08-24T12:26:11.282Z,23.40
2018-08-24T12:28:39.447Z,23.51
2018-08-24T12:31:07.756Z,23.62
2018-08-24T12:33:35.765Z,23.78
2018-08-24T12:36:04.821Z,23.95
2018-08-24T12:38:32.833Z,24.12
2018-08-24T12:41:00.985Z,24.12
2018-08-24T12:43:29.017Z,24.32
2018-08-24T12:45:56.993Z,24.38
2018-08-24T12:48:25.025Z,24.37
2018-08-24T12:50:53.032Z,24.54
2018-08-24T12:53:21.045Z,24.80
2018-08-24T12:55:49.057Z,24.39
2018-08-24T12:58:17.091Z,24.63
2018-08-24T13:00:45.106Z,24.64
2018-08-24T13:03:13.249Z,24.70
2018-08-24T13:05:41.497Z,24.82
2018-08-24T13:08:09.753Z,24.81
2018-08-24T13:10:38.017Z,24.82
2018-08-24T13:13:06.116Z,24.69
2018-08-24T13:15:34.179Z,24.45
2018-08-24T13:18:02.300Z,24.48
2018-08-24T13:20:30.284Z,24.01
2018-08-24T13:22:58.389Z,24.08
2018-08-24T13:25:26.416Z,24.04
2018-08-24T13:27:54.425Z,24.13
2018-08-24T13:30:22.426Z,24.03
2018-08-24T13:32:50.484Z,23.92
2018-08-24T13:35:25.190Z,23.62
2018-08-24T13:37:53.624Z,24.09
2018-08-24T13:40:21.988Z,24.13
2018-08-24T13:42:50.025Z,24.12
2018-08-24T13:45:18.029Z,23.85
2018-08-24T13:47:47.064Z,23.64
2018-08-24T13:50:15.071Z,23.50
2018-08-24T13:52:43.133Z,23.16
2018-08-24T13:55:11.154Z,23.18
2018-08-24T13:57:39.146Z,23.50
2018-08-24T14:00:07.553Z,23.66
2018-08-24T14:02:35.654Z,24.10
2018-08-24T14:05:03.716Z,24.08
2018-08-24T14:07:31.788Z,24.09
2018-08-24T14:09:59.797Z,24.15
2018-08-24T14:12:27.804Z,23.98
2018-08-24T14:14:55.834Z,23.87
2018-08-24T14:17:23.837Z,23.87
2018-08-24T14:19:51.860Z,23.69
2018-08-24T14:22:19.848Z,23.73
2018-08-24T14:24:47.853Z,23.85
2018-08-24T14:27:15.885Z,24.08
2018-08-24T14:29:44.232Z,24.23
2018-08-24T14:32:12.212Z,24.05
2018-08-24T14:34:40.628Z,23.69
2018-08-24T14:37:08.693Z,23.61
2018-08-24T14:39:36.763Z,23.58
2018-08-24T14:42:04.829Z,23.50
2018-08-24T14:44:32.972Z,23.26
2018-08-24T14:47:01.009Z,23.18
2018-08-24T14:49:29.038Z,23.01
2018-08-24T14:51:57.040Z,22.93
2018-08-24T14:54:25.084Z,22.94
2018-08-24T14:56:53.102Z,22.79
2018-08-24T14:59:21.125Z,22.90
2018-08-24T15:01:49.112Z,22.96
2018-08-24T15:04:17.148Z,23.18
2018-08-24T15:06:45.125Z,23.14
2018-08-24T15:09:13.166Z,23.13
2018-08-24T15:11:41.172Z,22.80
2018-08-24T15:14:09.738Z,22.67
2018-08-24T15:16:37.761Z,22.75
2018-08-24T15:19:05.937Z,22.70
2018-08-24T15:21:33.924Z,23.05
2018-08-24T15:24:01.953Z,23.02
2018-08-24T15:26:29.948Z,22.73
2018-08-24T15:28:58.013Z,22.77
2018-08-24T15:31:25.981Z,22.46
2018-08-24T15:33:54.005Z,22.30
2018-08-24T15:36:21.996Z,22.49
2018-08-24T15:38:50.029Z,22.30
2018-08-24T15:41:18.047Z,22.41
2018-08-24T15:43:46.075Z,22.36
2018-08-24T15:46:14.143Z,22.21
2018-08-24T15:48:42.081Z,22.17
2018-08-24T15:51:10.105Z,22.54
2018-08-24T15:53:38.102Z,22.61
2018-08-24T15:56:06.130Z,22.85
2018-08-24T15:58:34.221Z,22.77
2018-08-24T16:01:02.249Z,22.39
2018-08-24T16:03:30.281Z,22.18
2018-08-24T16:05:58.292Z,21.88
2018-08-24T16:08:26.343Z,21.91
2018-08-24T16:10:54.356Z,21.85
2018-08-24T16:13:22.364Z,21.82
2018-08-24T16:15:50.413Z,21.99
2018-08-24T16:18:23.005Z,21.57
2018-08-24T16:20:51.291Z,21.75
2018-08-24T16:23:19.325Z,21.85
2018-08-24T16:25:47.634Z,22.06
2018-08-24T16:28:15.640Z,21.96
2018-08-24T16:30:43.796Z,21.85
2018-08-24T16:33:11.827Z,21.71
2018-08-24T16:35:39.857Z,21.60
2018-08-24T16:38:07.850Z,21.26
2018-08-24T16:40:35.968Z,21.23
2018-08-24T16:43:03.980Z,21.09
2018-08-24T16:45:31.985Z,21.05
2018-08-24T16:48:00.017Z,20.99
2018-08-24T16:50:28.074Z,20.90
2018-08-24T16:52:56.058Z,20.89
2018-08-24T16:55:24.055Z,20.94
2018-08-24T16:57:52.804Z,20.41
2018-08-24T17:00:20.819Z,20.36
2018-08-24T17:02:48.800Z,20.32
2018-08-24T17:05:16.883Z,20.27
2018-08-24T17:07:45.952Z,20.18
2018-08-24T17:10:13.964Z,20.13
2018-08-24T17:12:42.024Z,20.03
2018-08-24T17:15:09.989Z,19.91
2018-08-24T17:17:37.981Z,19.83
2018-08-24T17:20:06.197Z,20.08
2018-08-24T17:22:34.225Z,20.16
2018-08-24T17:25:02.274Z,20.17
2018-08-24T17:27:30.269Z,20.23
2018-08-24T17:29:58.258Z,20.12
2018-08-24T17:32:26.292Z,20.14
2018-08-24T17:34:54.286Z,20.16
2018-08-24T17:37:22.397Z,20.29
2018-08-24T17:39:50.456Z,20.35
2018-08-24T17:42:18.472Z,20.12
2018-08-24T17:44:46.477Z,20.20
2018-08-24T17:47:14.492Z,20.14
2018-08-24T17:49:42.481Z,20.39
2018-08-24T17:52:10.808Z,20.20
2018-08-24T17:54:38.807Z,20.08
2018-08-24T17:57:06.828Z,20.14
2018-08-24T17:59:34.838Z,20.18
2018-08-24T18:02:03.081Z,20.35
2018-08-24T18:04:31.101Z,20.27
2018-08-24T18:06:59.129Z,20.21
2018-08-24T18:09:27.118Z,20.23
2018-08-24T18:11:55.138Z,20.15
2018-08-24T18:14:23.130Z,20.07
2018-08-24T18:16:51.645Z,19.55
2018-08-24T18:19:19.669Z,19.44
2018-08-24T18:21:47.801Z,19.26
2018-08-24T18:24:15.821Z,19.22
2018-08-24T18:26:43.820Z,18.89
2018-08-24T18:29:11.816Z,18.84
2018-08-24T18:31:39.918Z,18.75
2018-08-24T18:34:07.906Z,18.61
2018-08-24T18:36:36.074Z,18.63
2018-08-24T18:39:06.290Z,18.49
2018-08-24T18:41:34.388Z,18.53
2018-08-24T18:44:02.377Z,18.19
2018-08-24T18:46:30.375Z,18.19
2018-08-24T18:48:58.364Z,18.29
2018-08-24T18:51:26.361Z,18.36
2018-08-24T18:53:54.360Z,18.36
2018-08-24T18:56:22.391Z,18.46
2018-08-24T18:58:50.574Z,18.44
2018-08-24T19:01:18.821Z,18.50
2018-08-24T19:03:47.825Z,18.52
2018-08-24T19:06:15.838Z,18.40
2018-08-24T19:08:43.873Z,18.31
2018-08-24T19:11:17.366Z,18.28
2018-08-24T19:13:45.460Z,18.46
2018-08-24T19:16:13.431Z,18.48
2018-08-24T19:18:46.959Z,18.43
2018-08-24T19:21:20.356Z,18.60
2018-08-24T19:23:48.661Z,18.64
2018-08-24T19:26:16.713Z,18.46
2018-08-24T19:28:50.081Z,18.58
2018-08-24T19:31:18.124Z,18.53
2018-08-24T19:33:46.173Z,18.64
2018-08-24T19:36:14.164Z,18.61
2018-08-24T19:38:42.185Z,18.69
2018-08-24T19:42:18.277Z,18.64
2018-08-24T19:44:46.329Z,18.31
2018-08-24T19:47:19.761Z,18.33
2018-08-24T19:49:47.761Z,18.32
2018-08-24T19:52:15.784Z,18.26
2018-08-24T19:54:43.824Z,18.12
2018-08-24T19:57:17.341Z,18.20
2018-08-24T19:59:45.337Z,17.95
2018-08-24T20:02:13.391Z,17.93
2018-08-24T20:04:41.418Z,17.70
2018-08-24T20:07:14.980Z,17.65
2018-08-24T20:09:48.665Z,17.79
2018-08-24T20:12:16.681Z,17.71
2018-08-24T20:14:50.180Z,17.49
2018-08-24T20:17:23.736Z,17.42
2018-08-24T20:19:51.729Z,17.61
2018-08-24T20:22:19.746Z,17.44
2018-08-24T20:24:47.733Z,17.52
2018-08-24T20:27:15.754Z,17.34
2018-08-24T20:29:43.796Z,17.41
2018-08-24T20:32:11.781Z,17.32
2018-08-24T20:34:39.773Z,17.37
2018-08-24T20:37:07.781Z,17.42
2018-08-24T20:39:35.772Z,17.33
2018-08-24T20:42:03.796Z,17.42
2018-08-24T20:44:31.801Z,17.51
2018-08-24T20:46:59.793Z,17.40
2018-08-24T20:49:27.782Z,17.33
2018-08-24T20:51:55.781Z,17.29
2018-08-24T20:54:23.789Z,17.30
2018-08-24T20:56:51.837Z,17.48
2018-08-24T20:59:19.836Z,17.25
2018-08-24T21:01:47.876Z,17.37
2018-08-24T21:04:16.008Z,17.47
2018-08-24T21:06:43.974Z,17.48
2018-08-24T21:09:18.722Z,17.53
2018-08-24T21:11:46.741Z,17.60
2018-08-24T21:14:14.797Z,17.55
2018-08-24T21:16:42.874Z,17.47
2018-08-24T21:19:10.820Z,17.39
2018-08-24T21:21:38.828Z,17.39
2018-08-24T21:24:07.407Z,17.33
2018-08-24T21:26:35.566Z,17.38
2018-08-24T21:29:03.655Z,17.42
2018-08-24T21:31:31.592Z,17.45
2018-08-24T21:33:59.664Z,17.38
2018-08-24T21:36:27.686Z,17.52
2018-08-24T21:38:55.792Z,17.42
2018-08-24T21:41:23.824Z,17.52
2018-08-24T21:43:51.876Z,17.55
2018-08-24T21:46:19.921Z,17.56
2018-08-24T21:48:48.149Z,17.56
2018-08-24T21:51:17.190Z,17.58
2018-08-24T21:53:45.261Z,17.52
2018-08-24T21:56:13.357Z,17.61
2018-08-24T21:58:41.579Z,17.58
2018-08-24T22:01:09.565Z,17.43
2018-08-24T22:03:37.546Z,17.28
2018-08-24T22:06:05.616Z,17.29
2018-08-24T22:08:33.653Z,17.19
2018-08-24T22:11:01.719Z,17.20
2018-08-24T22:13:29.705Z,17.15
2018-08-24T22:15:57.857Z,17.20
2018-08-24T22:18:25.881Z,17.14
2018-08-24T22:20:53.994Z,17.17
2018-08-24T22:23:22.220Z,17.28
2018-08-24T22:25:50.277Z,17.16
2018-08-24T22:28:18.290Z,17.19
2018-08-24T22:30:46.267Z,17.07
2018-08-24T22:33:14.240Z,16.98
2018-08-24T22:35:42.281Z,17.11
2018-08-24T22:38:10.277Z,17.14
2018-08-24T22:40:38.390Z,17.11
2018-08-24T22:43:10.582Z,17.07
2018-08-24T22:45:38.652Z,16.94
2018-08-24T22:48:06.633Z,16.72
2018-08-24T22:50:34.693Z,16.54
2018-08-24T22:53:02.681Z,16.44
2018-08-24T22:55:30.694Z,16.33
2018-08-24T22:57:59.549Z,16.25
2018-08-24T23:00:27.546Z,16.31
2018-08-24T23:02:55.549Z,16.27
2018-08-24T23:05:23.662Z,16.22
2018-08-24T23:07:51.734Z,16.18
2018-08-24T23:10:19.779Z,16.12
2018-08-24T23:12:47.821Z,15.99
2018-08-24T23:15:15.832Z,15.97
2018-08-24T23:17:43.856Z,16.01
2018-08-24T23:20:11.857Z,15.85
2018-08-24T23:22:39.853Z,15.98
2018-08-24T23:25:07.968Z,15.91
2018-08-24T23:27:36.008Z,15.90
2018-08-24T23:30:04.455Z,15.87
2018-08-24T23:32:33.000Z,15.79
2018-08-24T23:35:00.984Z,15.75
2018-08-24T23:37:29.205Z,15.75
2018-08-24T23:39:57.188Z,15.74
2018-08-24T23:42:26.225Z,15.64
2018-08-24T23:44:54.301Z,15.41
2018-08-24T23:47:22.344Z,15.56
2018-08-24T23:49:50.332Z,15.47
2018-08-24T23:52:18.433Z,15.46
2018-08-24T23:54:46.525Z,15.59
2018-08-24T23:57:14.545Z,15.77
2018-08-24T23:59:42.568Z,15.78
